x

East Gulf - 208 Mn West Of Naples, Fl (42003) Wave Buoy

6:50am - Sun 30th Apr 2017 All times are EDT. -4 hours from GMT.

  • Sig Wave height 11.8ft
  • Peak Period 9s
  • Wind
    20mph, 29mph gusts
  • Air Temp 80°f
  • Sea Pressure 1014.1mb
  • East Gulf - 208 Mn West Of Naples, Fl
  • East Gulf - 208 Mn West Of Naples, Fl

More Historic Weather Station data

Upgrade to MSW Pro to gain access to the past 30 days of data for over 8000 Wavebouys and Weather Stations around the globe.

Join Pro

Comparision Forecast

View Surf forecast
   
Sun 04/30 6:50am 12ft 9s  -  20 29 mph 1014.1mb 80f
6:40am  -   -   -  22 29 mph 1014.1mb 80f
6:30am  -   -   -  22 29 mph 1014.1mb 80f
6:20am  -   -   -  22 29 mph 1014.3mb 80f
6:10am  -   -   -  22 29 mph 1014.3mb 80f
6:00am  -   -   -  25 29 mph 1014mb 80f
5:50am 11ft 9s 7s 22 31 mph 1014.1mb 80f
5:40am 11ft  -  7s 22 29 mph 1014.3mb 80f
5:30am  -   -   -  22 27 mph 1014.4mb 80f
5:20am  -   -   -  22 29 mph 1014.1mb 80f
5:10am  -   -   -  22 29 mph 1014mb 80f
5:00am  -   -   -  22 29 mph 1013.9mb 80f
4:50am 10.5ft 9s 7s 20 29 mph 1014.1mb 80f
4:40am  -   -   -  25 31 mph 1014mb 80f
4:30am  -   -   -  22 29 mph 1014.1mb 80f
4:20am  -   -   -  25 29 mph 1014.1mb 80f
4:10am  -   -   -  22 29 mph 1014mb 80f
4:00am  -   -   -  22 31 mph 1013.9mb 80f
3:50am 11ft 8s 7s 25 29 mph 1013.9mb 80f
3:40am  -   -   -  25 31 mph 1013.8mb 80f
3:30am  -   -   -  27 34 mph 1013.6mb 80f
3:20am  -   -   -  25 31 mph 1013.8mb 80f
3:10am  -   -   -  25 34 mph 1013.9mb 80f
3:00am  -   -   -  22 31 mph 1014mb 80f
2:50am 9.5ft 8s 7s 22 31 mph 1014.1mb 80f
2:40am  -   -   -  25 31 mph 1014mb 80f
2:30am  -   -   -  25 34 mph 1014.1mb 80f
2:20am  -   -   -  22 31 mph 1014.1mb 80f
2:10am  -   -   -  22 31 mph 1014.5mb 80f
2:00am  -   -   -  22 29 mph 1014.8mb 80f
1:50am 9ft 8s 6s 22 29 mph 1015mb 80f
1:40am 9ft  -  6s 22 29 mph 1015.1mb 80f
1:30am  -   -   -  22 27 mph 1015mb 80f
1:20am  -   -   -  22 29 mph 1015mb 80f
1:10am  -   -   -  20 27 mph 1015mb 80f
1:00am  -   -   -  25 31 mph 1015.1mb 80f
12:50am 8ft 8s 6s 20 29 mph 1015.3mb 80f
12:40am  -   -   -  20 29 mph 1015.4mb 80f
12:30am  -   -   -  22 27 mph 1015.3mb 80f
12:20am  -   -   -  22 27 mph 1015.4mb 80f
12:10am  -   -   -  22 29 mph 1015.3mb 80f
12:00am  -   -   -  22 27 mph 1015.4mb 80f
Sat 04/29 11:50pm 9ft 8s 7s 22 29 mph 1015.4mb 80f
11:40pm  -   -   -  22 29 mph 1015.4mb 80f
11:30pm  -   -   -  22 29 mph 1015.3mb 80f
11:20pm  -   -   -  22 29 mph 1015.3mb 80f
11:10pm  -   -   -  22 31 mph 1015mb 80f
11:00pm  -   -   -  22 27 mph 1015mb 80f
10:50pm 8.5ft 8s 7s 22 29 mph 1015mb 80f
10:40pm  -   -   -  22 31 mph 1015mb 80f
10:30pm  -   -   -  20 29 mph 1015mb 80f
10:20pm  -   -   -  22 29 mph 1015mb 80f
10:10pm  -   -   -  22 29 mph 1014.9mb 80f
10:00pm  -   -   -  22 29 mph 1014.6mb 80f
9:10pm  -   -   -  22 31 mph 1014.6mb 80f
9:00pm  -   -   -  20 29 mph 1014.6mb 80f
8:50pm 8ft 8s 6s 20 27 mph 1014.8mb 80f
8:40pm 8ft  -  6s 22 29 mph 1014.5mb 80f
8:30pm  -   -   -  20 29 mph 1014.5mb 80f
8:20pm  -   -   -  22 31 mph 1014.3mb 80f
8:10pm  -   -   -  22 31 mph 1014.3mb 80f
8:00pm  -   -   -  22 29 mph 1014.1mb 80f
7:50pm 8.5ft 8s 7s 22 29 mph 1014.3mb 80f
7:40pm 8.5ft  -  7s 22 29 mph 1014.4mb 80f
7:30pm  -   -   -  22 27 mph 1014.4mb -
7:20pm  -   -   -  22 29 mph 1014.4mb 80f
7:10pm  -   -   -  22 27 mph 1014.4mb 80f
7:00pm  -   -   -  22 29 mph 1014.3mb 80f
6:50pm 8ft 8s 7s 20 27 mph 1014.5mb 80f
6:40pm  -   -   -  20 25 mph 1014.6mb 80f
6:30pm  -   -   -  20 27 mph 1014.5mb 81f
6:20pm  -   -   -  20 29 mph 1014.5mb 81f
6:10pm  -   -   -  20 29 mph 1014.5mb 81f
6:00pm  -   -   -  22 29 mph 1014.5mb 80f
5:50pm 8ft 8s 6s 20 25 mph 1014.6mb 81f
5:40pm 8ft  -  6s 20 27 mph 1014.6mb 81f
5:30pm  -   -   -  20 27 mph 1014.6mb 80f
5:20pm  -   -   -  20 27 mph 1014.5mb 80f
5:10pm  -   -   -  20 27 mph 1014.5mb 80f
5:00pm  -   -   -  20 27 mph 1014.5mb 80f
4:50pm 8ft 8s 6s 20 27 mph 1014.6mb 81f
4:40pm  -   -   -  22 29 mph 1014.5mb 80f
4:30pm  -   -   -  20 29 mph 1014.6mb 80f
4:20pm  -   -   -  22 27 mph 1014.8mb 81f
4:10pm  -   -   -  22 29 mph 1014.8mb 80f
4:00pm  -   -   -  22 29 mph 1014.6mb 80f
3:50pm 9ft 8s 6s 20 27 mph 1014.6mb 81f
3:40pm 9ft  -  6s 20 29 mph 1014.8mb 80f
3:30pm  -   -   -  20 27 mph 1014.8mb 80f
3:20pm  -   -   -  20 27 mph 1015mb 80f
3:10pm  -   -   -  20 27 mph 1015mb 80f
3:00pm  -   -   -  22 27 mph 1015mb 80f
2:50pm 9ft 8s 6s 20 27 mph 1015mb 80f
2:40pm  -   -   -  22 27 mph 1015mb 80f
2:30pm  -   -   -  22 27 mph 1015mb 80f
2:20pm  -   -   -  20 27 mph 1015mb 80f
2:10pm  -   -   -  22 27 mph 1015mb 80f
2:00pm  -   -   -  22 27 mph 1015mb 80f
1:50pm 8ft 8s 6s 20 27 mph 1015mb 80f
1:40pm 8ft  -  6s 22 29 mph 1015mb 80f
1:30pm  -   -   -  22 29 mph 1015mb 80f
1:20pm  -   -   -  22 29 mph 1015mb 80f
1:10pm  -   -   -  22 29 mph 1015mb 80f
1:00pm  -   -   -  22 29 mph 1015.1mb 80f
12:50pm 9ft 8s 7s 22 29 mph 1015.4mb 80f
12:40pm  -   -   -  22 27 mph 1015.5mb 80f
12:30pm  -   -   -  20 27 mph 1015.5mb 80f
12:20pm  -   -   -  20 29 mph 1015.6mb 80f
12:10pm  -   -   -  22 29 mph 1015.6mb 80f
12:00pm  -   -   -  22 27 mph 1015.6mb 80f
11:50am 8.5ft 8s 6s 22 29 mph 1015.8mb 80f
11:40am  -   -   -  22 27 mph 1015.9mb 80f
11:30am  -   -   -  22 27 mph 1016mb 80f
11:20am  -   -   -  22 31 mph 1016.1mb 80f
11:10am  -   -   -  22 27 mph 1016.4mb 80f
11:00am  -   -   -  22 27 mph 1016.3mb 80f
10:50am 8.5ft 8s 6s 22 29 mph 1016.3mb 80f
10:40am  -   -   -  22 29 mph 1016mb 80f
10:30am  -   -   -  22 29 mph 1016mb 80f
10:20am  -   -   -  22 27 mph 1016.1mb 80f
10:10am  -   -   -  22 29 mph 1016mb 80f
10:00am  -   -   -  22 27 mph 1016mb 80f
9:50am 8ft 8s 6s 20 27 mph 1016mb 80f
9:40am 8ft  -  6s 20 29 mph 1016mb 80f
9:30am  -   -   -  22 27 mph 1016mb 80f
9:20am  -   -   -  22 29 mph 1016mb 80f
9:10am  -   -   -  25 29 mph 1015.9mb 80f
9:00am  -   -   -  22 29 mph 1015.8mb 80f
8:50am 8ft 8s 6s 22 29 mph 1015.8mb 80f
8:40am 8ft  -  6s 22 29 mph 1015.6mb 80f
8:30am  -   -   -  22 29 mph 1015.6mb 80f
8:20am  -   -   -  22 29 mph 1015.8mb 80f
8:10am  -   -   -  22 27 mph 1015.6mb 80f
8:00am  -   -   -  22 27 mph 1015.5mb 80f
7:50am 7.5ft 8s 6s 22 27 mph 1015.5mb 80f
7:40am 7.5ft  -  6s 22 29 mph 1015.5mb 80f
7:30am  -   -   -  22 29 mph 1015.3mb 80f
7:20am  -   -   -  20 27 mph 1015.1mb 80f
7:10am  -   -   -  22 27 mph 1015.1mb 80f
7:00am  -   -   -  20 27 mph 1015mb 80f
6:50am 7.5ft 8s 6s 20 27 mph 1015.1mb 80f
6:40am  -   -   -  22 29 mph 1015mb 80f
6:30am  -   -   -  20 27 mph 1014.9mb 80f
6:20am  -   -   -  20 29 mph 1014.8mb 79f
6:10am  -   -   -  20 27 mph 1014.8mb 79f
6:00am  -   -   -  20 25 mph 1014.5mb 79f
5:50am 7.5ft 8s 6s 18 25 mph 1014.5mb 80f
5:40am 7.5ft  -  6s 20 25 mph 1014.8mb 79f
5:30am  -   -   -  18 25 mph 1014.8mb 79f
5:20am  -   -   -  18 22 mph 1014.8mb 80f
5:10am  -   -   -  20 25 mph 1014.8mb 79f
5:00am  -   -   -  20 27 mph 1014.6mb 80f
4:50am 7.5ft 8s 6s 20 27 mph 1014.6mb 79f
4:40am  -   -   -  18 25 mph 1014.6mb 79f
4:30am  -   -   -  20 27 mph 1014.6mb 79f
4:20am  -   -   -  20 27 mph 1014.8mb 79f
4:10am  -   -   -  20 25 mph 1014.8mb 79f
4:00am  -   -   -  18 22 mph 1014.8mb 79f
3:50am 7ft 8s 6s 18 22 mph 1014.6mb 79f
3:40am  -   -   -  18 22 mph 1014.8mb 79f
3:30am  -   -   -  18 22 mph 1014.9mb 79f
3:20am  -   -   -  18 22 mph 1014.8mb 79f
3:10am  -   -   -  18 22 mph 1014.8mb 80f
3:00am  -   -   -  18 22 mph 1014.8mb 79f
2:50am 7ft 7s 6s 18 22 mph 1015mb 80f
2:40am 7ft  -  6s 20 27 mph 1015mb 80f
2:30am  -   -   -  20 25 mph 1015mb 80f
2:20am  -   -   -  20 27 mph 1015.3mb 80f
2:10am  -   -   -  20 25 mph 1015.4mb 80f
2:00am  -   -   -  20 27 mph 1015.4mb 80f
1:50am 5.5ft 7s 5s 20 27 mph 1015.5mb 80f
1:40am  -   -   -  20 25 mph 1015.5mb 80f
1:30am  -   -   -  20 25 mph 1015.5mb 80f
1:20am  -   -   -  18 22 mph 1015.6mb 80f
1:10am  -   -   -  18 20 mph 1015.5mb 80f
1:00am  -   -   -  16 20 mph 1015.5mb 80f
12:50am 5.5ft 7s 5s 16 22 mph 1015.5mb 80f
12:40am 5.5ft  -  5s 16 22 mph 1015.5mb 80f
12:30am  -   -   -  16 22 mph 1015.8mb 80f
12:20am  -   -   -  16 20 mph 1015.8mb 80f
12:10am  -   -   -  16 20 mph 1015.8mb 80f
12:00am  -   -   -  16 20 mph 1015.8mb 80f
Fri 04/28 11:50pm 5ft 6s 5s 18 22 mph 1015.6mb 80f
11:40pm  -   -   -  16 22 mph 1015.6mb 80f
11:30pm  -   -   -  16 22 mph 1015.6mb 80f
11:20pm  -   -   -  16 18 mph 1015.6mb 80f
11:10pm  -   -   -  16 20 mph 1015.5mb 80f
11:00pm  -   -   -  16 20 mph 1015.4mb 80f
10:50pm 5.5ft 7s 5s 16 20 mph 1015.5mb 80f
10:40pm  -   -   -  16 20 mph 1015.4mb 80f
10:30pm  -   -   -  16 20 mph 1015.3mb 80f
10:20pm  -   -   -  13 18 mph 1015.1mb 80f
10:10pm  -   -   -  16 18 mph 1015mb 80f
10:00pm  -   -   -  13 18 mph 1014.9mb 80f
9:50pm 5ft 6s 5s 13 18 mph 1014.9mb 80f
9:40pm  -   -   -  16 18 mph 1014.8mb -
9:30pm  -   -   -  16 20 mph 1014.5mb 80f
9:20pm  -   -   -  16 20 mph 1014.4mb 80f
9:10pm  -   -   -  16 20 mph 1014.3mb 80f
9:00pm  -   -   -  16 20 mph 1014.1mb 80f
8:50pm 5ft 6s 5s 16 18 mph 1014mb 80f
8:40pm 5ft  -  5s 16 20 mph 1013.8mb 80f
8:30pm  -   -   -  16 20 mph 1013.6mb 80f
8:20pm  -   -   -  16 18 mph 1013.6mb 80f
8:10pm  -   -   -  16 20 mph 1013.5mb 80f
8:00pm  -   -   -  16 20 mph 1013.6mb 80f
7:50pm 4.5ft 7s 5s 13 18 mph 1013.8mb 80f
7:40pm  -   -   -  13 18 mph 1013.9mb 80f
7:30pm  -   -   -  13 18 mph 1013.9mb 80f
7:20pm  -   -   -  13 18 mph 1013.8mb 80f
7:10pm  -   -   -  11 16 mph 1013.9mb 80f
7:00pm  -   -   -  11 16 mph 1013.9mb 80f
6:50pm 4.5ft 6s 5s 11 16 mph 1013.8mb 80f
6:40pm  -   -   -  11 16 mph 1013.8mb 80f
6:30pm  -   -   -  11 13 mph 1013.6mb 80f
6:20pm  -   -   -  13 16 mph 1013.9mb 80f
6:10pm  -   -   -  13 16 mph 1013.8mb 80f
6:00pm  -   -   -  13 16 mph 1013.8mb 80f
5:50pm 5ft 5s 5s 13 18 mph 1013.6mb 80f
5:40pm 5ft  -  5s 13 18 mph 1013.8mb 80f
5:30pm  -   -   -  13 18 mph 1013.9mb 81f
5:20pm  -   -   -  13 18 mph 1014mb 80f
5:10pm  -   -   -  13 20 mph 1014mb 80f
5:00pm  -   -   -  13 18 mph 1014mb 80f
4:50pm 5ft 6s 5s 13 18 mph 1013.9mb 80f
4:40pm  -   -   -  13 18 mph 1013.9mb 80f
4:30pm  -   -   -  13 18 mph 1014.1mb 80f
4:20pm  -   -   -  13 18 mph 1014.1mb 80f
4:10pm  -   -   -  13 18 mph 1014.3mb 80f
4:00pm  -   -   -  13 18 mph 1014.1mb 80f
3:50pm 5ft 6s 5s 13 16 mph 1014.3mb 81f
3:40pm 5ft  -  5s 13 18 mph 1014.3mb 80f
3:30pm  -   -   -  13 16 mph 1014.4mb 80f
3:20pm  -   -   -  16 18 mph 1014.4mb 80f
3:10pm  -   -   -  16 18 mph 1014.4mb 80f
3:00pm  -   -   -  13 16 mph 1014.5mb 80f
2:50pm 4.5ft 6s 5s 13 16 mph 1014.6mb 80f
2:40pm 4.5ft  -  5s 13 16 mph 1014.6mb 80f
2:30pm  -   -   -  13 16 mph 1014.8mb 80f
2:20pm  -   -   -  13 18 mph 1014.9mb 80f
2:10pm  -   -   -  13 16 mph 1015mb 80f
2:00pm  -   -   -  13 16 mph 1014.9mb 80f
1:50pm 4.5ft 6s 5s 13 16 mph 1015mb 80f
1:40pm  -   -   -  11 16 mph 1015mb 80f
1:30pm  -   -   -  13 16 mph 1015mb 80f
1:20pm  -   -   -  13 18 mph 1015mb 80f
1:10pm  -   -   -  11 16 mph 1015mb 80f
1:00pm  -   -   -  11 16 mph 1015mb 80f
12:50pm 4ft 6s 5s 13 16 mph 1015mb 80f
12:40pm 4ft  -  5s 13 16 mph 1015mb 80f
12:30pm  -   -   -  13 16 mph 1015mb 80f
12:20pm  -   -   -  13 18 mph 1015mb 80f
12:10pm  -   -   -  13 18 mph 1015mb 80f
12:00pm  -   -   -  13 16 mph 1015mb 80f
11:50am 4.5ft 6s 5s 13 16 mph 1015mb 80f
11:40am 4.5ft  -  5s 13 16 mph 1015mb 80f
11:30am  -   -   -  11 16 mph 1015mb 80f
11:20am  -   -   -  11 16 mph 1015mb 80f
11:10am  -   -   -  11 16 mph 1014.9mb 80f
11:00am  -   -   -  11 16 mph 1014.8mb 80f
10:50am 4.5ft 6s 5s 11 16 mph 1014.6mb 80f
10:40am 4.5ft  -  5s 11 16 mph 1014.6mb 80f
10:30am  -   -   -  11 16 mph 1014.6mb 80f
10:20am  -   -   -  11 16 mph 1014.5mb 80f
10:10am  -   -   -  11 16 mph 1014.5mb 80f
10:00am  -   -   -  13 18 mph 1014.4mb 80f
9:50am 3.5ft 5s 5s 13 16 mph 1014.3mb 80f
9:40am  -   -   -  13 16 mph 1014.1mb 80f
9:30am  -   -   -  11 13 mph 1014.1mb 80f
9:20am  -   -   -  11 13 mph 1014.1mb 80f
9:10am  -   -   -  11 13 mph 1014.1mb 80f
9:00am  -   -   -  11 13 mph 1014mb 80f
8:50am 4.5ft 6s 5s 11 16 mph 1014mb 80f
8:40am 4.5ft  -  5s 13 16 mph 1013.9mb 80f
8:30am  -   -   -  13 18 mph 1013.8mb 80f
8:20am  -   -   -  13 18 mph 1013.8mb 80f
8:10am  -   -   -  11 16 mph 1013.6mb 80f
8:00am  -   -   -  13 18 mph 1013.5mb 80f
7:40am 4ft 6s 5s  -  mph - -
7:30am  -   -   -  13 18 mph 1013mb 80f
7:20am  -   -   -  13 18 mph 1013mb 80f
7:10am  -   -   -  13 18 mph 1012.9mb 80f
7:00am  -   -   -  13 16 mph 1012.6mb 80f
6:50am 4ft 5s 5s 13 18 mph 1012.6mb 80f
6:40am 4ft  -  5s 16 18 mph 1012.5mb 80f
6:30am  -   -   -  16 18 mph 1012.3mb 80f
6:20am  -   -   -  16 20 mph 1012.3mb 80f
6:10am  -   -   -  13 18 mph 1012.1mb 79f
6:00am  -   -   -  16 20 mph 1012mb 79f
5:50am 3.5ft 6s 5s 11 16 mph 1012.1mb 80f
5:40am  -   -   -  13 16 mph 1012mb 79f
5:30am  -   -   -  13 16 mph 1012mb 79f
5:20am  -   -   -  11 13 mph 1012mb 79f
5:10am  -   -   -  13 16 mph 1012mb 79f
5:00am  -   -   -  11 13 mph 1012mb 79f
4:50am 3.5ft 6s 5s 11 16 mph 1012mb 79f
4:40am  -   -   -  13 16 mph 1012mb 79f
4:30am  -   -   -  13 18 mph 1011.9mb 79f
4:20am  -   -   -  13 18 mph 1011.8mb 79f
4:10am  -   -   -  13 18 mph 1011.8mb 79f
4:00am  -   -   -  16 18 mph 1011.8mb 79f
3:50am 3.5ft 6s 5s 13 18 mph 1011.8mb 79f
3:40am  -   -   -  13 18 mph 1011.8mb 79f
3:30am  -   -   -  16 18 mph 1011.8mb 79f
3:20am  -   -   -  13 18 mph 1011.8mb 79f
3:10am  -   -   -  13 18 mph 1011.8mb 79f
3:00am  -   -   -  13 16 mph 1011.8mb 79f
2:50am 3.5ft 6s 5s 13 16 mph 1011.8mb 79f
2:40am  -   -   -  13 16 mph 1011.9mb 79f
2:30am  -   -   -  13 16 mph 1012mb 79f
2:20am  -   -   -  13 18 mph 1012mb 79f
2:10am  -   -   -  13 16 mph 1012.1mb 79f
2:00am  -   -   -  13 16 mph 1012.1mb 79f
1:50am 3.5ft 7s 5s 13 18 mph 1012.1mb 79f
1:40am  -   -   -  13 16 mph 1012mb 79f
1:30am  -   -   -  13 18 mph 1012.1mb 79f
1:20am  -   -   -  13 16 mph 1012mb 79f
1:10am  -   -   -  13 16 mph 1012mb 79f
1:00am  -   -   -  13 16 mph 1012mb 79f
12:50am 3.5ft 6s 5s 13 16 mph 1012mb 79f
12:40am  -   -   -  13 16 mph 1012.3mb 79f
12:30am  -   -   -  13 16 mph 1012.3mb 79f
12:20am  -   -   -  11 16 mph 1012.3mb 79f
12:10am  -   -   -  11 13 mph 1012.3mb 79f
12:00am  -   -   -  11 13 mph 1012.4mb 79f
Thu 04/27 11:50pm 4ft 6s 5s 11 13 mph 1012.4mb 79f
11:40pm  -   -   -  11 13 mph 1012.4mb 79f
11:30pm  -   -   -  11 16 mph 1012.5mb 79f
11:20pm  -   -   -  11 13 mph 1012.5mb 79f
11:10pm  -   -   -  11 13 mph 1012.5mb 79f
11:00pm  -   -   -  11 13 mph 1012.5mb 79f
10:50pm 3.5ft 6s 5s 11 13 mph 1012.3mb 79f
10:40pm 3.5ft  -  5s 11 13 mph 1012.3mb 79f
10:30pm  -   -   -  11 13 mph 1012mb 79f
10:20pm  -   -   -  11 13 mph 1012mb 79f
10:10pm  -   -   -  9 13 mph 1012mb 79f
10:00pm  -   -   -  11 13 mph 1012mb 79f
9:40pm  -   -   -  9 11 mph 1011.9mb 79f
9:30pm  -   -   -  9 11 mph 1011.8mb 79f
9:20pm  -   -   -  7 9 mph 1011.6mb 80f
9:10pm  -   -   -  7 9 mph 1011.5mb 79f
9:00pm  -   -   -  7 9 mph 1011.5mb 80f
8:50pm 4.5ft 6s 5s 9
mph
1011.4mb 80f
8:40pm 4.5ft  -  5s 9 11 mph 1011.3mb 80f
8:30pm  -   -   -  9 11 mph 1011.1mb 80f
8:20pm  -   -   -  9 11 mph 1011.1mb -
8:10pm  -   -   -  9 11 mph 1011.1mb 80f
8:00pm  -   -   -  9 11 mph 1011.1mb 80f
7:50pm 4ft 6s 5s 9 13 mph 1011.1mb 80f
7:40pm  -   -   -  9 11 mph 1011mb 80f
7:30pm  -   -   -  11 13 mph 1010.8mb 80f
7:20pm  -   -   -  9 13 mph 1010.8mb 80f
7:10pm  -   -   -  7 9 mph 1010.6mb 80f
7:00pm  -   -   -  9 11 mph 1010.6mb 80f
6:50pm 4.5ft 7s 5s 11 13 mph 1010.6mb 80f
6:40pm  -   -   -  9 11 mph 1010.6mb 80f
6:30pm  -   -   -  9 13 mph 1010.5mb 80f
6:20pm  -   -   -  9 11 mph 1010.5mb 80f
6:10pm  -   -   -  9 11 mph 1010.9mb 80f
6:00pm  -   -   -  9 11 mph 1011mb 80f
5:50pm 4.5ft 6s 5s 11 13 mph 1010.9mb 80f
5:40pm  -   -   -  11 13 mph 1010.9mb 80f
5:30pm  -   -   -  11 16 mph 1010.9mb 80f
5:20pm  -   -   -  11 13 mph 1010.8mb 80f
5:10pm  -   -   -  11 16 mph 1010.8mb 80f
5:00pm  -   -   -  13 16 mph 1010.8mb 80f
4:50pm 5ft 6s 5s 13 18 mph 1010.9mb 80f
4:40pm 5ft  -  5s 13 16 mph 1010.9mb 80f
4:30pm  -   -   -  13 18 mph 1010.9mb 80f
4:20pm  -   -   -  13 18 mph 1010.9mb 80f
4:10pm  -   -   -  13 18 mph 1010.9mb 80f
4:00pm  -   -   -  16 18 mph 1010.9mb 80f
3:50pm 4.5ft 6s 5s 13 18 mph 1010.9mb 80f
3:40pm 4.5ft  -  5s 16 20 mph 1011mb 80f
3:30pm  -   -   -  16 20 mph 1010.9mb 80f
3:20pm  -   -   -  16 20 mph 1011mb 80f
3:10pm  -   -   -  16 20 mph 1011.1mb 80f
3:00pm  -   -   -  16 20 mph 1011.1mb 80f
2:50pm 4.5ft 6s 5s 18 20 mph 1011.3mb 80f
2:40pm 4.5ft  -  5s 18 20 mph 1011.3mb 80f
2:30pm  -   -   -  16 20 mph 1011.4mb 80f
2:20pm  -   -   -  13 18 mph 1011.6mb 80f
2:10pm  -   -   -  13 16 mph 1012mb 80f
2:00pm  -   -   -  13 16 mph 1012mb 80f
1:50pm 4.5ft 6s 5s 13 16 mph 1012.1mb 80f
1:40pm  -   -   -  13 16 mph 1012.1mb 80f
1:30pm  -   -   -  13 16 mph 1012.3mb 80f
1:20pm  -   -   -  13 16 mph 1012.4mb 80f
1:10pm  -   -   -  11 16 mph 1012.5mb 80f
1:00pm  -   -   -  11 16 mph 1012.5mb 80f
12:50pm 5ft 6s 5s 11 16 mph 1012.5mb 80f
12:40pm  -   -   -  13 16 mph 1012.5mb 80f
12:30pm  -   -   -  11 16 mph 1012.5mb 80f
12:20pm  -   -   -  13 16 mph 1012.5mb 80f
12:10pm  -   -   -  13 18 mph 1012.4mb 80f
12:00pm  -   -   -  16 20 mph 1012.3mb 80f
11:50am 4.5ft 6s 5s 16 18 mph 1012.3mb 80f
11:40am 4.5ft  -  5s 16 20 mph 1012.1mb 80f
11:30am  -   -   -  16 18 mph 1012.1mb 80f
11:20am  -   -   -  16 18 mph 1012.1mb 80f
11:10am  -   -   -  16 20 mph 1012mb 80f
11:00am  -   -   -  16 20 mph 1011.9mb 80f
10:50am 4.5ft 6s 5s 16 20 mph 1011.9mb 80f
10:40am  -   -   -  16 20 mph 1011.8mb 80f
10:30am  -   -   -  16 20 mph 1011.9mb 80f
10:20am  -   -   -  16 20 mph 1011.8mb 80f
10:10am  -   -   -  16 20 mph 1011.8mb 80f
10:00am  -   -   -  16 18 mph 1011.6mb 80f
9:50am 5ft 6s 5s 16 18 mph 1011.6mb 80f
9:40am 5ft  -  5s 16 20 mph 1011.5mb 79f
9:30am  -   -   -  13 18 mph 1011.5mb 80f
9:20am  -   -   -  13 18 mph 1011.4mb 80f
9:10am  -   -   -  16 18 mph 1011.3mb 80f
9:00am  -   -   -  16 18 mph 1011.1mb 80f
8:50am 5ft 7s 5s 16 20 mph 1011.1mb 80f
8:40am  -   -   -  13 20 mph 1011mb 80f
8:30am  -   -   -  13 18 mph 1011mb 80f
8:20am  -   -   -  13 18 mph 1010.9mb 80f
8:10am  -   -   -  16 20 mph 1010.6mb 80f
8:00am  -   -   -  16 18 mph 1010.4mb 79f
7:50am 5ft 6s 5s 16 18 mph 1010.4mb 79f
7:40am  -   -   -  13 18 mph 1010.1mb 79f
7:30am  -   -   -  13 16 mph 1010mb 79f
7:20am  -   -   -  13 16 mph 1010mb 79f
7:10am  -   -   -  13 18 mph 1009.8mb 79f
7:00am  -   -   -  13 18 mph 1009.9mb 79f
6:50am 5ft 6s 5s 13 16 mph 1009.6mb 79f
6:40am  -   -   -  13 18 mph 1009.5mb 79f
6:30am  -   -   -  13 18 mph 1009.5mb 79f
6:20am  -   -   -  13 18 mph 1009.5mb 79f
6:10am  -   -   -  13 18 mph 1009.4mb 79f
6:00am  -   -   -  16 18 mph 1009.3mb 79f
5:50am 4.5ft 6s 5s 13 18 mph 1009.3mb 79f
5:40am  -   -   -  16 20 mph 1009.1mb 79f
5:30am  -   -   -  18 20 mph 1009mb 79f
5:20am  -   -   -  16 20 mph 1009mb 79f
5:10am  -   -   -  16 22 mph 1009mb 79f
5:00am  -   -   -  18 20 mph 1009mb 79f
4:50am 5ft 6s 5s 16 20 mph 1009mb 79f
4:40am 5ft  -  5s 18 20 mph 1008.9mb 79f
4:30am  -   -   -  18 20 mph 1008.9mb 79f
4:20am  -   -   -  18 22 mph 1008.8mb 79f
4:10am  -   -   -  18 22 mph 1009mb 79f
4:00am  -   -   -  18 20 mph 1009mb 79f
3:50am 4.5ft 5s 5s 18 20 mph 1009mb 79f
3:40am 4.5ft  -  5s 18 22 mph 1009.3mb 79f
3:30am  -   -   -  16 20 mph 1009.3mb 79f
3:20am  -   -   -  16 20 mph 1009.3mb 79f
3:10am  -   -   -  16 20 mph 1009.4mb 79f
3:00am  -   -   -  18 22 mph 1009.4mb 79f
2:50am 5ft 6s 5s 18 22 mph 1009.3mb 79f
2:40am 5ft  -  5s 18 22 mph 1009.4mb 79f
2:30am  -   -   -  18 25 mph 1009.5mb 79f
2:20am  -   -   -  18 25 mph 1009.5mb 79f
2:10am  -   -   -  18 25 mph 1009.5mb 79f
2:00am  -   -   -  20 25 mph 1009.5mb 79f
1:50am 4.5ft 6s 5s 20 25 mph 1009.8mb 79f
1:40am  -   -   -  18 22 mph 1009.8mb 79f
1:30am  -   -   -  20 22 mph 1009.6mb 79f
1:20am  -   -   -  20 25 mph 1009.5mb 79f
1:10am  -   -   -  20 25 mph 1009.6mb 79f
1:00am  -   -   -  20 25 mph 1009.5mb 79f
12:50am 4.5ft 6s 5s 20 25 mph 1009.6mb 79f
12:40am 4.5ft  -  5s 20 25 mph 1009.5mb 79f
12:30am  -   -   -  20 22 mph 1009.8mb 79f
12:20am  -   -   -  20 25 mph 1009.8mb 79f
12:10am  -   -   -  20 25 mph 1009.6mb 79f
12:00am  -   -   -  20 25 mph 1009.6mb 79f
Wed 04/26 11:50pm 4ft 6s 4s 18 22 mph 1009.6mb 79f
11:40pm  -   -   -  18 25 mph 1009.6mb 79f
11:30pm  -   -   -  18 22 mph 1009.8mb 79f
11:20pm  -   -   -  18 22 mph 1009.5mb 79f
11:10pm  -   -   -  18 22 mph 1009.5mb 79f
11:00pm  -   -   -  18 20 mph 1009.6mb 79f
10:50pm 4ft 5s 4s 18 20 mph 1009.6mb 79f
10:40pm 4ft  -  4s 16 20 mph 1009.6mb 79f
10:30pm  -   -   -  16 20 mph 1009.5mb 80f
10:20pm  -   -   -  18 22 mph 1009.5mb 79f
10:10pm  -   -   -  18 20 mph 1009.5mb 79f
10:00pm  -   -   -  18 20 mph 1009.5mb 80f
9:50pm 3.5ft 5s 4s 18 20 mph 1009.4mb 80f
9:40pm  -   -   -  18 20 mph 1009.3mb 80f
9:30pm  -   -   -  18 20 mph 1009.1mb 80f
9:20pm  -   -   -  18 22 mph 1009.1mb 80f
9:10pm  -   -   -  18 22 mph 1009mb -
9:00pm  -   -   -  18 22 mph 1008.9mb 80f
8:50pm 3.5ft 6s 4s 18 20 mph 1008.9mb 80f
8:40pm  -   -   -  16 20 mph 1008.9mb 80f
8:30pm  -   -   -  18 20 mph 1008.8mb 80f
8:20pm  -   -   -  16 20 mph 1008.6mb 80f
8:10pm  -   -   -  16 20 mph 1008.5mb 80f
8:00pm  -   -   -  16 20 mph 1008.5mb 80f
7:50pm 3ft 5s 4s 16 20 mph 1008.4mb 80f
7:40pm  -   -   -  18 20 mph 1008.4mb 80f
7:30pm  -   -   -  18 20 mph 1008.5mb 80f
7:20pm  -   -   -  18 20 mph 1008.4mb 80f
7:10pm  -   -   -  18 20 mph 1008.4mb 80f
7:00pm  -   -   -  18 20 mph 1008.3mb 80f
6:50pm 3ft 5s 4s 16 20 mph 1008.4mb 80f
6:40pm 3ft  -  4s 18 20 mph 1008.3mb 80f
6:30pm  -   -   -  16 20 mph 1008.1mb 80f
6:20pm  -   -   -  18 20 mph 1008mb 80f
6:10pm  -   -   -  16 20 mph 1008mb 80f
6:00pm  -   -   -  16 18 mph 1008.1mb 80f
5:50pm 3.5ft 5s 4s 16 20 mph 1008mb 80f
5:40pm  -   -   -  18 20 mph 1008.1mb 80f
5:30pm  -   -   -  16 20 mph 1008.1mb 80f
5:20pm  -   -   -  16 20 mph 1008mb 80f
5:10pm  -   -   -  16 20 mph 1008.1mb 80f
5:00pm  -   -   -  16 20 mph 1008mb 80f
4:50pm 3.5ft 4s 4s 18 20 mph 1008mb 80f
4:40pm  -   -   -  16 20 mph 1008mb 80f
4:30pm  -   -   -  16 20 mph 1008mb 80f
4:20pm  -   -   -  18 20 mph 1008.1mb 80f
4:10pm  -   -   -  18 20 mph 1008.1mb 80f
4:00pm  -   -   -  18 20 mph 1008.4mb 80f
3:50pm 3.5ft 5s 4s 18 20 mph 1008.5mb 80f
3:40pm  -   -   -  18 22 mph 1008.5mb 80f
3:30pm  -   -   -  18 22 mph 1008.5mb 80f
3:20pm  -   -   -  18 22 mph 1008.6mb 80f
3:10pm  -   -   -  18 22 mph 1008.6mb 80f
3:00pm  -   -   -  18 20 mph 1008.9mb 80f
2:50pm 3.5ft 5s 4s 18 20 mph 1008.9mb 80f
2:40pm 3.5ft  -  4s 18 20 mph 1008.9mb 80f
2:30pm  -   -   -  18 22 mph 1009mb 80f
2:20pm  -   -   -  16 20 mph 1009.3mb 80f
2:10pm  -   -   -  18 20 mph 1009.5mb 80f
2:00pm  -   -   -  18 20 mph 1009.5mb 80f
1:50pm 3.5ft 4s 4s 16 20 mph 1009.5mb 80f
1:40pm  -   -   -  16 20 mph 1009.5mb 80f
1:30pm  -   -   -  18 20 mph 1009.5mb 80f
1:20pm  -   -   -  18 20 mph 1009.5mb 80f
1:10pm  -   -   -  18 20 mph 1009.6mb 80f
1:00pm  -   -   -  18 20 mph 1009.8mb 80f
12:50pm 3ft 4s 4s 18 20 mph 1009.8mb 80f
12:40pm  -   -   -  18 22 mph 1009.8mb 80f
12:30pm  -   -   -  18 22 mph 1009.8mb 80f
12:20pm  -   -   -  18 22 mph 1009.9mb 80f
12:10pm  -   -   -  18 20 mph 1010mb 80f
12:00pm  -   -   -  18 20 mph 1010mb 80f
11:50am 2.5ft 4s 3s 18 22 mph 1010mb 80f
11:40am 2.5ft  -  3s 18 22 mph 1009.9mb 80f
11:30am  -   -   -  18 20 mph 1009.8mb 80f
11:20am  -   -   -  18 22 mph 1009.6mb 80f